Time,TemperatureF,DewpointF,PressureIn,WindDirection,WindDirectionDegrees,WindSpeedMPH,WindSpeedGustMPH,Humidity,HourlyPrecipIn,Conditions,Clouds,dailyrainin,SolarRadiationWatts/m^2,SoftwareType,DateUTC
2013-04-16 00:22:00,26.0,26.0,-100.00,WNW,293,16.0,21.0,100,0.00,,,0.00,0.000000,,2013-04-16 05:22:00,
2013-04-16 00:32:00,26.0,26.0,-100.00,WNW,293,16.0,21.0,100,0.00,,,0.00,0.000000,,2013-04-16 05:32:00,
2013-04-16 00:42:00,26.0,26.0,-100.00,WNW,293,16.0,21.0,100,0.00,,,0.00,0.000000,,2013-04-16 05:42:00,
2013-04-16 00:52:00,26.0,26.0,-100.00,WNW,293,16.0,21.0,100,0.00,,,0.00,0.000000,,2013-04-16 05:52:00,
2013-04-16 01:22:00,26.0,26.0,-100.00,WNW,297,16.0,19.0,100,0.00,,,0.00,0.000000,,2013-04-16 06:22:00,
2013-04-16 01:32:00,26.0,26.0,-100.00,WNW,297,16.0,19.0,100,0.00,,,0.00,0.000000,,2013-04-16 06:32:00,
2013-04-16 01:42:00,26.0,26.0,-100.00,WNW,297,16.0,19.0,100,0.00,,,0.00,0.000000,,2013-04-16 06:42:00,
2013-04-16 01:52:00,26.0,26.0,-100.00,WNW,297,16.0,19.0,100,0.00,,,0.00,0.000000,,2013-04-16 06:52:00,
2013-04-16 02:22:00,24.0,24.0,-100.00,WNW,295,12.0,18.0,100,0.00,,,0.00,0.000000,,2013-04-16 07:22:00,
2013-04-16 02:32:00,24.0,24.0,-100.00,WNW,295,12.0,18.0,100,0.00,,,0.00,0.000000,,2013-04-16 07:32:00,
2013-04-16 02:42:00,24.0,24.0,-100.00,WNW,295,12.0,18.0,100,0.00,,,0.00,0.000000,,2013-04-16 07:42:00,
2013-04-16 02:53:00,24.0,24.0,-100.00,WNW,295,12.0,18.0,100,0.00,,,0.00,0.000000,,2013-04-16 07:53:00,
2013-04-16 03:22:00,25.0,25.0,-100.00,WNW,302,15.0,17.0,100,0.00,,,0.00,0.000000,,2013-04-16 08:22:00,
2013-04-16 03:32:00,25.0,25.0,-100.00,WNW,302,15.0,17.0,100,0.00,,,0.00,0.000000,,2013-04-16 08:32:00,
2013-04-16 03:42:00,25.0,25.0,-100.00,WNW,302,15.0,17.0,100,0.00,,,0.00,0.000000,,2013-04-16 08:42:00,
2013-04-16 03:52:00,25.0,25.0,-100.00,WNW,302,15.0,17.0,100,0.00,,,0.00,0.000000,,2013-04-16 08:52:00,
2013-04-16 04:22:00,26.0,26.0,-100.00,NW,306,18.0,22.0,100,0.00,,,0.00,0.000000,,2013-04-16 09:22:00,
2013-04-16 04:33:00,26.0,26.0,-100.00,NW,306,18.0,22.0,100,0.00,,,0.00,0.000000,,2013-04-16 09:33:00,
2013-04-16 04:42:00,26.0,26.0,-100.00,NW,306,18.0,22.0,100,0.00,,,0.00,0.000000,,2013-04-16 09:42:00,
2013-04-16 04:52:00,26.0,26.0,-100.00,NW,306,18.0,22.0,100,0.00,,,0.00,0.000000,,2013-04-16 09:52:00,
2013-04-16 05:23:00,24.0,24.0,-100.00,WNW,288,12.0,22.0,100,0.00,,,0.00,0.000000,,2013-04-16 10:23:00,
2013-04-16 05:33:00,24.0,24.0,-100.00,WNW,288,12.0,22.0,100,0.00,,,0.00,0.000000,,2013-04-16 10:33:00,
2013-04-16 05:42:00,24.0,24.0,-100.00,WNW,288,12.0,22.0,100,0.00,,,0.00,0.000000,,2013-04-16 10:42:00,
2013-04-16 05:52:00,24.0,24.0,-100.00,WNW,288,12.0,22.0,100,0.00,,,0.00,0.000000,,2013-04-16 10:52:00,
2013-04-16 06:22:00,22.0,22.0,-100.00,WNW,298,14.0,17.0,100,0.00,,,0.00,0.000000,,2013-04-16 11:22:00,
2013-04-16 06:32:00,22.0,22.0,-100.00,WNW,298,14.0,17.0,100,0.00,,,0.00,0.000000,,2013-04-16 11:32:00,
2013-04-16 06:42:00,22.0,22.0,-100.00,WNW,298,14.0,17.0,100,0.00,,,0.00,0.000000,,2013-04-16 11:42:00,
2013-04-16 06:52:00,22.0,22.0,-100.00,WNW,298,14.0,17.0,100,0.00,,,0.00,0.000000,,2013-04-16 11:52:00,
2013-04-16 07:22:00,22.0,22.0,-100.00,WNW,295,12.0,15.0,100,0.00,,,0.00,4.000000,,2013-04-16 12:22:00,
2013-04-16 07:32:00,22.0,22.0,-100.00,WNW,295,12.0,15.0,100,0.00,,,0.00,4.000000,,2013-04-16 12:32:00,
2013-04-16 07:42:00,22.0,22.0,-100.00,WNW,295,12.0,15.0,100,0.00,,,0.00,4.000000,,2013-04-16 12:42:00,
2013-04-16 07:52:00,22.0,22.0,-100.00,WNW,295,12.0,15.0,100,0.00,,,0.00,4.000000,,2013-04-16 12:52:00,
2013-04-16 08:22:00,22.0,22.0,-100.00,NW,306,14.0,17.0,100,0.00,,,0.00,71.000000,,2013-04-16 13:22:00,
2013-04-16 08:32:00,22.0,22.0,-100.00,NW,306,14.0,17.0,100,0.00,,,0.00,71.000000,,2013-04-16 13:32:00,
2013-04-16 08:42:00,22.0,22.0,-100.00,NW,306,14.0,17.0,100,0.00,,,0.00,71.000000,,2013-04-16 13:42:00,
2013-04-16 08:52:00,22.0,22.0,-100.00,NW,306,14.0,17.0,100,0.00,,,0.00,71.000000,,2013-04-16 13:52:00,
2013-04-16 09:22:00,23.0,23.0,-100.00,WNW,286,11.0,19.0,100,0.00,,,0.00,214.000000,,2013-04-16 14:22:00,
2013-04-16 09:32:00,23.0,23.0,-100.00,WNW,286,11.0,19.0,100,0.00,,,0.00,214.000000,,2013-04-16 14:32:00,
2013-04-16 09:42:00,23.0,23.0,-100.00,WNW,286,11.0,19.0,100,0.00,,,0.00,214.000000,,2013-04-16 14:42:00,
2013-04-16 09:52:00,23.0,23.0,-100.00,WNW,286,11.0,19.0,100,0.00,,,0.00,214.000000,,2013-04-16 14:52:00,
2013-04-16 10:22:00,25.0,25.0,-100.00,WNW,295,12.0,17.0,100,0.00,,,0.00,420.000000,,2013-04-16 15:22:00,
2013-04-16 10:33:00,25.0,25.0,-100.00,WNW,295,12.0,17.0,100,0.00,,,0.00,420.000000,,2013-04-16 15:33:00,
2013-04-16 10:43:00,25.0,25.0,-100.00,WNW,295,12.0,17.0,100,0.00,,,0.00,420.000000,,2013-04-16 15:43:00,
2013-04-16 10:53:00,25.0,25.0,-100.00,WNW,295,12.0,17.0,100,0.00,,,0.00,420.000000,,2013-04-16 15:53:00,
2013-04-16 11:23:00,27.0,26.0,-100.00,WNW,303,14.0,17.0,94,0.00,,,0.00,574.000000,,2013-04-16 16:23:00,
2013-04-16 11:32:00,27.0,26.0,-100.00,WNW,303,14.0,17.0,94,0.00,,,0.00,574.000000,,2013-04-16 16:32:00,
2013-04-16 11:42:00,27.0,26.0,-100.00,WNW,303,14.0,17.0,94,0.00,,,0.00,574.000000,,2013-04-16 16:42:00,
2013-04-16 11:52:00,27.0,26.0,-100.00,WNW,303,14.0,17.0,94,0.00,,,0.00,574.000000,,2013-04-16 16:52:00,
2013-04-16 12:22:00,28.0,25.0,-100.00,NNW,328,13.0,16.0,90,0.00,,,0.00,964.000000,,2013-04-16 17:22:00,
2013-04-16 12:32:00,28.0,25.0,-100.00,NNW,328,13.0,16.0,90,0.00,,,0.00,964.000000,,2013-04-16 17:32:00,
2013-04-16 12:43:00,28.0,25.0,-100.00,NNW,328,13.0,16.0,90,0.00,,,0.00,964.000000,,2013-04-16 17:43:00,
2013-04-16 12:52:00,28.0,25.0,-100.00,NNW,328,13.0,16.0,90,0.00,,,0.00,964.000000,,2013-04-16 17:52:00,
2013-04-16 13:22:00,30.0,27.0,-100.00,NW,313,14.0,17.0,89,0.00,,,0.00,971.000000,,2013-04-16 18:22:00,
2013-04-16 13:32:00,30.0,27.0,-100.00,NW,313,14.0,17.0,89,0.00,,,0.00,971.000000,,2013-04-16 18:32:00,
2013-04-16 13:42:00,30.0,27.0,-100.00,NW,313,14.0,17.0,89,0.00,,,0.00,971.000000,,2013-04-16 18:42:00,
2013-04-16 13:52:00,30.0,27.0,-100.00,NW,313,14.0,17.0,89,0.00,,,0.00,971.000000,,2013-04-16 18:52:00,
2013-04-16 14:22:00,31.0,28.0,-100.00,NNW,331,10.0,15.0,88,0.00,,,0.00,916.000000,,2013-04-16 19:22:00,
2013-04-16 14:32:00,31.0,28.0,-100.00,NNW,331,10.0,15.0,88,0.00,,,0.00,916.000000,,2013-04-16 19:32:00,
2013-04-16 14:42:00,31.0,28.0,-100.00,NNW,331,10.0,15.0,88,0.00,,,0.00,916.000000,,2013-04-16 19:42:00,
2013-04-16 14:52:00,31.0,28.0,-100.00,NNW,331,10.0,15.0,88,0.00,,,0.00,916.000000,,2013-04-16 19:52:00,
2013-04-16 15:22:00,33.0,28.0,-100.00,NNW,340,7.0,12.0,82,0.00,,,0.00,960.000000,,2013-04-16 20:22:00,
2013-04-16 15:32:00,33.0,28.0,-100.00,NNW,340,7.0,12.0,82,0.00,,,0.00,960.000000,,2013-04-16 20:32:00,
2013-04-16 15:42:00,33.0,28.0,-100.00,NNW,340,7.0,12.0,82,0.00,,,0.00,960.000000,,2013-04-16 20:42:00,
2013-04-16 15:52:00,33.0,28.0,-100.00,NNW,340,7.0,12.0,82,0.00,,,0.00,960.000000,,2013-04-16 20:52:00,
2013-04-16 16:22:00,32.0,26.0,-100.00,NW,325,7.0,9.0,79,0.00,,,0.00,779.000000,,2013-04-16 21:22:00,
2013-04-16 16:32:00,32.0,26.0,-100.00,NW,325,7.0,9.0,79,0.00,,,0.00,779.000000,,2013-04-16 21:32:00,
2013-04-16 16:43:00,32.0,26.0,-100.00,NW,325,7.0,9.0,79,0.00,,,0.00,779.000000,,2013-04-16 21:43:00,
2013-04-16 16:52:00,32.0,26.0,-100.00,NW,325,7.0,9.0,79,0.00,,,0.00,779.000000,,2013-04-16 21:52:00,
2013-04-16 17:22:00,32.0,27.0,-100.00,North,353,6.0,10.0,82,0.00,,,0.00,528.000000,,2013-04-16 22:22:00,
2013-04-16 17:33:00,32.0,27.0,-100.00,North,353,6.0,10.0,82,0.00,,,0.00,528.000000,,2013-04-16 22:33:00,
2013-04-16 17:42:00,32.0,27.0,-100.00,North,353,6.0,10.0,82,0.00,,,0.00,528.000000,,2013-04-16 22:42:00,
2013-04-16 17:52:00,32.0,27.0,-100.00,North,353,6.0,10.0,82,0.00,,,0.00,528.000000,,2013-04-16 22:52:00,
2013-04-16 18:22:00,30.0,27.0,-100.00,NNW,342,7.0,9.0,89,0.00,,,0.00,299.000000,,2013-04-16 23:22:00,
2013-04-16 18:32:00,30.0,27.0,-100.00,NNW,342,7.0,9.0,89,0.00,,,0.00,299.000000,,2013-04-16 23:32:00,
2013-04-16 18:42:00,30.0,27.0,-100.00,NNW,342,7.0,9.0,89,0.00,,,0.00,299.000000,,2013-04-16 23:42:00,
2013-04-16 18:52:00,30.0,27.0,-100.00,NNW,342,7.0,9.0,89,0.00,,,0.00,299.000000,,2013-04-16 23:52:00,
2013-04-16 19:22:00,29.0,28.0,-100.00,North,3,7.0,10.0,95,0.00,,,0.00,158.000000,,2013-04-17 00:22:00,
2013-04-16 19:32:00,29.0,28.0,-100.00,North,3,7.0,10.0,95,0.00,,,0.00,158.000000,,2013-04-17 00:32:00,
2013-04-16 19:42:00,29.0,28.0,-100.00,North,3,7.0,10.0,95,0.00,,,0.00,158.000000,,2013-04-17 00:42:00,
2013-04-16 19:52:00,29.0,28.0,-100.00,North,3,7.0,10.0,95,0.00,,,0.00,158.000000,,2013-04-17 00:52:00,
2013-04-16 20:22:00,29.0,29.0,-100.00,NNE,13,6.0,11.0,100,0.00,,,0.00,39.000000,,2013-04-17 01:22:00,
2013-04-16 20:32:00,29.0,29.0,-100.00,NNE,13,6.0,11.0,100,0.00,,,0.00,39.000000,,2013-04-17 01:32:00,
2013-04-16 20:42:00,29.0,29.0,-100.00,NNE,13,6.0,11.0,100,0.00,,,0.00,39.000000,,2013-04-17 01:42:00,
2013-04-16 20:52:00,29.0,29.0,-100.00,NNE,13,6.0,11.0,100,0.00,,,0.00,39.000000,,2013-04-17 01:52:00,
2013-04-16 21:22:00,29.0,29.0,-100.00,ENE,67,7.0,10.0,99,0.00,,,0.00,0.000000,,2013-04-17 02:22:00,
2013-04-16 21:32:00,29.0,29.0,-100.00,ENE,67,7.0,10.0,99,0.00,,,0.00,0.000000,,2013-04-17 02:32:00,
2013-04-16 21:42:00,29.0,29.0,-100.00,ENE,67,7.0,10.0,99,0.00,,,0.00,0.000000,,2013-04-17 02:42:00,
2013-04-16 21:52:00,29.0,29.0,-100.00,ENE,67,7.0,10.0,99,0.00,,,0.00,0.000000,,2013-04-17 02:52:00,
2013-04-16 22:22:00,27.0,27.0,-100.00,ENE,59,7.0,10.0,100,0.00,,,0.00,0.000000,,2013-04-17 03:22:00,
2013-04-16 22:33:00,27.0,27.0,-100.00,ENE,59,7.0,10.0,100,0.00,,,0.00,0.000000,,2013-04-17 03:33:00,
2013-04-16 22:42:00,27.0,27.0,-100.00,ENE,59,7.0,10.0,100,0.00,,,0.00,0.000000,,2013-04-17 03:42:00,
2013-04-16 22:53:00,27.0,27.0,-100.00,ENE,59,7.0,10.0,100,0.00,,,0.00,0.000000,,2013-04-17 03:53:00,
2013-04-16 23:22:00,26.0,26.0,-100.00,NE,55,7.0,10.0,100,0.00,,,0.00,0.000000,,2013-04-17 04:22:00,
2013-04-16 23:33:00,26.0,26.0,-100.00,NE,55,7.0,10.0,100,0.00,,,0.00,0.000000,,2013-04-17 04:33:00,
2013-04-16 23:42:00,26.0,26.0,-100.00,NE,55,7.0,10.0,100,0.00,,,0.00,0.000000,,2013-04-17 04:42:00,
2013-04-16 23:52:00,26.0,26.0,-100.00,NE,55,7.0,10.0,100,0.00,,,0.00,0.000000,,2013-04-17 04:52:00,